Time;durP1;ratioP1;P1;durP2;ratioP2;P2;SDS_P1;SDS_P2;PMS_P1;PMS_P2;Temp;Humidity;BMP_temperature;BMP_pressure;BME280_temperature;BME280_humidity;BME280_pressure;Samples;Min_cycle;Max_cycle;Signal;HPM_P1;HPM_P2
2023/09/30 00:01:47;;;;;;;10.82;2.22;;;14.30;99.90;;;;;;5050962;28;20049;-57
2023/09/30 00:04:14;;;;;;;19.40;2.25;;;14.20;99.90;;;;;;5052106;28;20048;-59
2023/09/30 00:06:41;;;;;;;9.80;2.92;;;14.20;99.90;;;;;;5063570;28;20124;-59
2023/09/30 00:09:08;;;;;;;10.88;2.60;;;14.20;99.90;;;;;;5063219;28;20467;-60
2023/09/30 00:11:35;;;;;;;14.70;3.75;;;14.30;99.90;;;;;;5055632;28;20089;-60
2023/09/30 00:14:02;;;;;;;12.60;3.00;;;14.30;99.90;;;;;;5050472;28;20095;-61
2023/09/30 00:16:28;;;;;;;8.48;1.98;;;14.30;99.90;;;;;;5058115;28;20041;-58
2023/09/30 00:18:55;;;;;;;12.52;2.78;;;14.20;99.90;;;;;;5031496;28;20067;-58
2023/09/30 00:21:23;;;;;;;9.98;2.33;;;14.30;99.90;;;;;;5059183;28;20463;-56
2023/09/30 00:23:50;;;;;;;7.93;2.47;;;14.20;99.90;;;;;;5048498;28;20080;-59
2023/09/30 00:26:17;;;;;;;10.45;2.08;;;14.30;99.90;;;;;;5036406;28;20064;-58
2023/09/30 00:28:44;;;;;;;13.10;1.95;;;14.20;99.90;;;;;;5047970;28;20053;-59
2023/09/30 00:31:10;;;;;;;14.55;3.03;;;14.20;99.90;;;;;;4686677;28;10000193;-58
2023/09/30 00:33:37;;;;;;;15.90;2.58;;;14.20;99.90;;;;;;5062735;28;20467;-58
2023/09/30 00:36:08;;;;;;;13.63;2.38;;;14.20;99.90;;;;;;5051197;28;20057;-59
2023/09/30 00:38:36;;;;;;;13.63;2.75;;;14.20;99.90;;;;;;5047935;28;20049;-57
2023/09/30 00:41:03;;;;;;;12.43;2.40;;;14.20;99.90;;;;;;5051693;28;20055;-58
2023/09/30 00:43:31;;;;;;;12.70;2.85;;;14.20;99.90;;;;;;5066974;28;20557;-56
2023/09/30 00:46:29;;;;;;;13.15;3.65;;;14.10;99.90;;;;;;5054358;28;20515;-58
2023/09/30 00:48:58;;;;;;;15.13;2.22;;;14.10;99.90;;;;;;5027768;28;20496;-58
2023/09/30 00:51:28;;;;;;;14.77;2.67;;;14.10;99.90;;;;;;5038461;28;20080;-59
2023/09/30 00:53:58;;;;;;;9.77;2.22;;;14.20;99.90;;;;;;5028294;28;20057;-59
2023/09/30 00:56:26;;;;;;;15.45;2.47;;;14.20;99.90;;;;;;5033598;28;20114;-60
2023/09/30 00:58:53;;;;;;;9.25;2.00;;;14.20;99.90;;;;;;5048895;28;20110;-60
2023/09/30 01:01:20;;;;;;;10.73;2.00;;;14.20;99.90;;;;;;5038155;28;20048;-58
2023/09/30 01:03:47;;;;;;;14.75;3.65;;;14.20;99.90;;;;;;5033166;28;20044;-58
2023/09/30 01:06:14;;;;;;;13.85;2.78;;;14.20;99.90;;;;;;5050409;28;20499;-59
2023/09/30 01:08:41;;;;;;;10.70;2.03;;;14.20;99.90;;;;;;5041567;28;20056;-58
2023/09/30 01:11:09;;;;;;;11.88;2.08;;;14.20;99.90;;;;;;5033618;28;20135;-57
2023/09/30 01:13:36;;;;;;;13.82;4.15;;;14.20;99.90;;;;;;5041276;28;20420;-57
2023/09/30 01:16:05;;;;;;;11.95;2.50;;;14.20;99.90;;;;;;5062825;28;20302;-58
2023/09/30 01:18:32;;;;;;;10.48;2.10;;;14.10;99.90;;;;;;5057059;28;20044;-56
2023/09/30 01:21:03;;;;;;;12.57;3.40;;;14.10;99.90;;;;;;5048583;28;20037;-56
2023/09/30 01:23:33;;;;;;;11.75;2.50;;;14.10;99.90;;;;;;5040631;28;20049;-57
2023/09/30 01:26:09;;;;;;;9.73;2.80;;;14.20;99.90;;;;;;5048233;28;20475;-58
2023/09/30 01:28:36;;;;;;;9.60;2.17;;;14.30;99.90;;;;;;5030615;28;20060;-59
2023/09/30 01:31:04;;;;;;;11.27;3.53;;;14.20;99.90;;;;;;5047925;28;20056;-59
2023/09/30 01:33:31;;;;;;;13.55;2.85;;;14.30;99.90;;;;;;5055828;28;20043;-59
2023/09/30 01:36:01;;;;;;;11.32;2.90;;;14.30;99.90;;;;;;5067599;28;20045;-59
2023/09/30 01:38:28;;;;;;;14.02;2.28;;;14.30;99.90;;;;;;5055582;28;20045;-59
2023/09/30 01:40:55;;;;;;;10.40;3.03;;;14.30;99.90;;;;;;5053255;28;20084;-58
2023/09/30 01:43:26;;;;;;;12.63;2.38;;;14.20;99.90;;;;;;5046684;28;20060;-57
2023/09/30 01:45:53;;;;;;;17.80;3.30;;;14.20;99.90;;;;;;5050856;28;20550;-58
2023/09/30 01:48:20;;;;;;;16.52;2.28;;;14.10;99.90;;;;;;5062802;28;20048;-58
2023/09/30 01:50:47;;;;;;;10.52;2.38;;;14.10;99.90;;;;;;5013588;28;20378;-58
2023/09/30 01:53:14;;;;;;;14.80;3.60;;;14.00;99.90;;;;;;5037081;28;20040;-59
2023/09/30 01:55:41;;;;;;;12.60;1.90;;;13.90;99.90;;;;;;5052680;28;20049;-58
2023/09/30 01:58:11;;;;;;;10.32;2.10;;;13.90;99.90;;;;;;5054514;28;20049;-57
2023/09/30 02:00:38;;;;;;;12.85;2.25;;;13.90;99.90;;;;;;5066678;28;20126;-58
2023/09/30 02:03:05;;;;;;;11.43;3.72;;;13.90;99.90;;;;;;5053885;28;20048;-57
2023/09/30 02:05:32;;;;;;;15.40;2.42;;;13.90;99.90;;;;;;5064218;28;20240;-59
2023/09/30 02:07:59;;;;;;;11.43;2.60;;;13.90;99.90;;;;;;5062342;28;20124;-58
2023/09/30 02:10:26;;;;;;;9.95;2.70;;;13.90;99.90;;;;;;5050299;28;20044;-58
2023/09/30 02:12:53;;;;;;;13.98;2.90;;;13.90;99.90;;;;;;5051238;28;20423;-59
2023/09/30 02:15:20;;;;;;;14.45;2.63;;;14.00;99.90;;;;;;5060663;28;20110;-58
2023/09/30 02:17:48;;;;;;;10.35;2.33;;;13.90;99.90;;;;;;5051816;28;20368;-57
2023/09/30 02:20:19;;;;;;;17.02;2.40;;;13.90;99.90;;;;;;5061853;28;20069;-58
2023/09/30 02:22:46;;;;;;;10.35;2.10;;;14.00;99.90;;;;;;5052882;28;20053;-58
2023/09/30 02:25:13;;;;;;;10.38;2.25;;;13.90;99.90;;;;;;5066963;28;20049;-60
2023/09/30 02:27:43;;;;;;;8.02;2.03;;;13.90;99.90;;;;;;5049092;28;20095;-58
2023/09/30 02:30:11;;;;;;;13.07;3.58;;;13.90;99.90;;;;;;5057115;28;20081;-59
2023/09/30 02:32:41;;;;;;;7.65;2.22;;;13.80;99.90;;;;;;5051885;28;20515;-59
2023/09/30 02:35:10;;;;;;;16.77;2.50;;;13.80;99.90;;;;;;5039264;28;20480;-58
2023/09/30 02:37:38;;;;;;;8.38;2.20;;;13.80;99.90;;;;;;5070818;28;20416;-59
2023/09/30 02:40:09;;;;;;;24.00;3.47;;;13.80;99.90;;;;;;5057440;28;20049;-59
2023/09/30 02:42:39;;;;;;;11.30;2.05;;;13.80;99.90;;;;;;5069667;28;20135;-58
2023/09/30 02:45:07;;;;;;;15.27;2.42;;;13.80;99.90;;;;;;5064939;28;20092;-59
2023/09/30 02:47:35;;;;;;;19.27;2.40;;;13.70;99.90;;;;;;5032960;28;20106;-59
2023/09/30 02:50:02;;;;;;;12.60;2.35;;;13.80;99.90;;;;;;5058364;28;20048;-58
2023/09/30 02:52:29;;;;;;;17.30;2.72;;;13.70;99.90;;;;;;5054575;28;20049;-56
2023/09/30 02:54:57;;;;;;;18.80;2.90;;;13.70;99.90;;;;;;5055394;28;20102;-59
2023/09/30 02:57:24;;;;;;;15.98;2.17;;;13.80;99.90;;;;;;5051417;28;20048;-58
2023/09/30 02:59:54;;;;;;;14.27;3.05;;;13.70;99.90;;;;;;5051365;28;20044;-58
2023/09/30 03:02:22;;;;;;;18.02;2.45;;;13.70;99.90;;;;;;5063186;28;20098;-58
2023/09/30 03:04:51;;;;;;;10.32;2.15;;;13.70;99.90;;;;;;5065576;28;20085;-58
2023/09/30 03:07:21;;;;;;;11.80;2.08;;;13.70;99.90;;;;;;5058537;28;20055;-59
2023/09/30 03:09:47;;;;;;;13.85;2.75;;;13.70;99.90;;;;;;5050830;28;20503;-58
2023/09/30 03:12:15;;;;;;;11.68;3.50;;;13.70;99.90;;;;;;5058954;28;20424;-59
2023/09/30 03:14:42;;;;;;;12.45;2.40;;;13.70;99.90;;;;;;5051064;28;20049;-58
2023/09/30 03:17:12;;;;;;;15.20;2.00;;;13.70;99.90;;;;;;5057995;28;20487;-59
2023/09/30 03:19:39;;;;;;;16.85;2.45;;;13.70;99.90;;;;;;5067810;28;20491;-59
2023/09/30 03:22:10;;;;;;;15.48;3.65;;;13.70;99.90;;;;;;5057756;28;20188;-60
2023/09/30 03:24:39;;;;;;;11.57;2.38;;;13.60;99.90;;;;;;5065238;28;20450;-59
2023/09/30 03:27:07;;;;;;;13.50;3.22;;;13.60;99.90;;;;;;5058400;28;20057;-59
2023/09/30 03:29:38;;;;;;;14.10;2.55;;;13.60;99.90;;;;;;5031683;28;20049;-59
2023/09/30 03:32:04;;;;;;;8.05;2.15;;;13.60;99.90;;;;;;5037445;28;20431;-60
2023/09/30 03:34:31;;;;;;;12.15;2.55;;;13.60;99.90;;;;;;5068867;28;20048;-59
2023/09/30 03:36:58;;;;;;;14.38;4.35;;;13.60;99.90;;;;;;5046485;28;20106;-58
2023/09/30 03:39:32;;;;;;;13.00;2.75;;;13.50;99.90;;;;;;5049081;28;20154;-57
2023/09/30 03:42:01;;;;;;;9.88;1.83;;;13.50;99.90;;;;;;5042291;28;20052;-59
2023/09/30 03:44:28;;;;;;;10.70;2.45;;;13.40;99.90;;;;;;5049550;28;20053;-58
2023/09/30 03:46:56;;;;;;;19.30;3.42;;;13.30;99.90;;;;;;5052690;28;20041;-58
2023/09/30 03:49:42;;;;;;;16.70;2.47;;;13.30;99.90;;;;;;5036227;28;20433;-57
2023/09/30 03:52:15;;;;;;;17.73;3.25;;;13.30;99.90;;;;;;5034268;28;20060;-57
2023/09/30 03:54:42;;;;;;;12.88;2.63;;;13.30;99.90;;;;;;5066772;28;20094;-58
2023/09/30 03:57:09;;;;;;;11.75;2.40;;;13.20;99.90;;;;;;5053102;28;20435;-58
2023/09/30 03:59:36;;;;;;;15.27;2.45;;;13.20;99.90;;;;;;5049234;28;20141;-58
2023/09/30 04:02:03;;;;;;;9.90;1.73;;;13.20;99.90;;;;;;5051067;28;20106;-58
2023/09/30 04:04:31;;;;;;;15.38;3.03;;;13.20;99.90;;;;;;5049774;28;20102;-58
2023/09/30 04:06:58;;;;;;;11.50;2.38;;;13.20;99.90;;;;;;5052521;28;20079;-58
2023/09/30 04:09:25;;;;;;;13.00;2.17;;;13.20;99.90;;;;;;5060233;28;20446;-59
2023/09/30 04:11:55;;;;;;;22.00;2.90;;;13.10;99.90;;;;;;5062294;28;20132;-58
2023/09/30 04:14:21;;;;;;;16.55;2.70;;;13.10;99.90;;;;;;5058076;28;20044;-58
2023/09/30 04:16:48;;;;;;;7.97;1.88;;;13.10;99.90;;;;;;5064592;28;20119;-58
2023/09/30 04:19:15;;;;;;;12.75;2.92;;;13.10;99.90;;;;;;5065427;28;20040;-59
2023/09/30 04:21:42;;;;;;;12.10;2.38;;;13.00;99.90;;;;;;5066096;28;20052;-58
2023/09/30 04:24:09;;;;;;;18.92;2.78;;;13.00;99.90;;;;;;5036066;28;20052;-58
2023/09/30 04:26:36;;;;;;;14.25;3.22;;;13.00;99.90;;;;;;5049734;28;20049;-59
2023/09/30 04:29:04;;;;;;;11.43;2.67;;;13.00;99.90;;;;;;5054953;28;20488;-59
2023/09/30 04:31:31;;;;;;;6.68;2.03;;;13.00;99.90;;;;;;5067716;28;20052;-57
2023/09/30 04:33:58;;;;;;;14.63;2.40;;;13.00;99.90;;;;;;5055190;28;20126;-58
2023/09/30 04:36:25;;;;;;;18.20;2.10;;;13.00;99.90;;;;;;5068086;28;20404;-59
2023/09/30 04:38:52;;;;;;;10.30;2.30;;;13.00;99.90;;;;;;5063377;28;20114;-60
2023/09/30 04:41:19;;;;;;;9.50;2.42;;;13.00;99.90;;;;;;5048172;28;20048;-58
2023/09/30 04:43:46;;;;;;;6.25;2.55;;;13.00;99.90;;;;;;5051206;28;20098;-57
2023/09/30 04:46:13;;;;;;;20.98;2.90;;;13.10;99.90;;;;;;5064414;28;20076;-59
2023/09/30 04:48:40;;;;;;;13.65;2.75;;;13.10;99.90;;;;;;5063382;28;20491;-59
2023/09/30 04:51:08;;;;;;;13.02;3.47;;;13.10;99.90;;;;;;5053182;28;20048;-59
2023/09/30 04:53:36;;;;;;;11.70;2.65;;;13.20;99.90;;;;;;5051973;28;20048;-59
2023/09/30 04:56:03;;;;;;;10.63;2.05;;;13.10;99.90;;;;;;5055260;28;20049;-59
2023/09/30 04:58:30;;;;;;;10.05;2.97;;;13.10;99.90;;;;;;5016774;28;20049;-59
2023/09/30 05:00:57;;;;;;;14.30;2.65;;;13.10;99.90;;;;;;5057979;28;20056;-57
2023/09/30 05:03:24;;;;;;;13.40;2.80;;;13.00;99.90;;;;;;5064567;28;20040;-58
2023/09/30 05:05:55;;;;;;;10.82;2.70;;;13.00;99.90;;;;;;5062652;28;20059;-59
2023/09/30 05:08:24;;;;;;;13.93;2.10;;;13.10;99.90;;;;;;5052566;28;20708;-59
2023/09/30 05:10:50;;;;;;;13.45;2.72;;;13.00;99.90;;;;;;5056818;28;20136;-57
2023/09/30 05:13:18;;;;;;;11.43;2.45;;;13.00;99.90;;;;;;5069931;28;20500;-58
2023/09/30 05:15:46;;;;;;;17.20;3.15;;;13.00;99.90;;;;;;5063695;28;20048;-58
2023/09/30 05:18:13;;;;;;;11.23;2.17;;;12.90;99.90;;;;;;5031954;28;20485;-55
2023/09/30 05:20:40;;;;;;;13.32;2.45;;;12.90;99.90;;;;;;5039408;28;20132;-58
2023/09/30 05:23:07;;;;;;;12.30;3.58;;;12.90;99.90;;;;;;5071423;28;20052;-58
2023/09/30 05:25:34;;;;;;;15.73;3.45;;;12.90;99.90;;;;;;5056536;28;20057;-58
2023/09/30 05:28:02;;;;;;;11.65;2.03;;;13.00;99.90;;;;;;5031022;28;20052;-59
2023/09/30 05:30:29;;;;;;;13.43;2.38;;;13.00;99.90;;;;;;5038519;28;20040;-59
2023/09/30 05:32:56;;;;;;;7.57;2.40;;;13.00;99.90;;;;;;5052995;28;20106;-58
2023/09/30 05:35:23;;;;;;;9.43;2.55;;;13.00;99.90;;;;;;5055026;28;20053;-61
2023/09/30 05:37:53;;;;;;;13.43;3.15;;;13.00;99.90;;;;;;5067163;28;20056;-59
2023/09/30 05:40:26;;;;;;;15.70;2.55;;;13.00;99.90;;;;;;5064256;28;20061;-59
2023/09/30 05:42:54;;;;;;;13.57;2.70;;;13.00;99.90;;;;;;5065638;28;20055;-58
2023/09/30 05:45:23;;;;;;;13.27;2.78;;;13.00;99.90;;;;;;5066817;28;20056;-59
2023/09/30 05:47:52;;;;;;;18.20;2.72;;;13.00;99.90;;;;;;5058010;28;20060;-59
2023/09/30 05:50:24;;;;;;;12.75;2.35;;;13.00;99.90;;;;;;5054087;28;20502;-60
2023/09/30 05:52:51;;;;;;;12.65;2.97;;;13.00;99.90;;;;;;5041854;28;20041;-58
2023/09/30 05:55:20;;;;;;;18.27;3.50;;;13.00;99.90;;;;;;5054746;28;20080;-61
2023/09/30 05:57:49;;;;;;;14.80;2.50;;;13.00;99.90;;;;;;5061632;28;20454;-59
2023/09/30 06:00:30;;;;;;;9.20;2.38;;;13.00;99.90;;;;;;5070897;28;20041;-59
2023/09/30 06:02:58;;;;;;;11.43;1.98;;;13.10;99.90;;;;;;5052564;28;20103;-57
2023/09/30 06:05:30;;;;;;;10.90;2.33;;;13.10;99.90;;;;;;5069152;28;20454;-58
2023/09/30 06:07:59;;;;;;;14.57;2.10;;;13.10;99.90;;;;;;5045341;28;20072;-57
2023/09/30 06:10:25;;;;;;;8.90;1.98;;;13.00;99.90;;;;;;5051799;28;20071;-58
2023/09/30 06:12:56;;;;;;;16.27;2.58;;;13.00;99.90;;;;;;5059189;28;20048;-58
2023/09/30 06:15:26;;;;;;;20.67;3.67;;;13.00;99.90;;;;;;5052114;28;20045;-58
2023/09/30 06:17:54;;;;;;;12.77;3.20;;;13.00;99.90;;;;;;5044476;28;20041;-59
2023/09/30 06:20:26;;;;;;;12.57;2.65;;;13.00;99.90;;;;;;5050983;28;20087;-58
2023/09/30 06:22:54;;;;;;;10.23;2.87;;;13.00;99.90;;;;;;5045834;28;20408;-59
2023/09/30 06:25:23;;;;;;;15.65;2.55;;;13.00;99.90;;;;;;5049420;28;20316;-58
2023/09/30 06:27:50;;;;;;;11.13;2.42;;;13.00;99.90;;;;;;4702771;28;10000956;-58
2023/09/30 06:30:19;;;;;;;15.50;4.55;;;13.00;99.90;;;;;;5059918;28;20421;-58
2023/09/30 06:32:46;;;;;;;15.68;2.20;;;13.00;99.90;;;;;;5050299;28;20044;-59
2023/09/30 06:35:13;;;;;;;10.30;2.08;;;13.10;99.90;;;;;;5047221;28;20051;-57
2023/09/30 06:37:40;;;;;;;15.63;3.60;;;13.10;99.90;;;;;;5051044;28;20130;-60
2023/09/30 06:40:08;;;;;;;21.13;3.15;;;13.20;99.90;;;;;;5039416;28;20037;-60
2023/09/30 06:42:36;;;;;;;10.70;2.47;;;13.20;99.90;;;;;;5053680;28;20053;-58
2023/09/30 06:45:06;;;;;;;11.23;2.50;;;13.30;99.90;;;;;;5056976;28;20096;-59
2023/09/30 06:47:33;;;;;;;12.25;3.15;;;13.20;99.90;;;;;;5031643;28;20281;-58
2023/09/30 06:50:07;;;;;;;9.18;2.10;;;13.30;99.90;;;;;;5057603;28;20056;-58
2023/09/30 06:52:35;;;;;;;13.77;2.60;;;13.30;99.90;;;;;;5049201;28;20458;-58
2023/09/30 06:55:06;;;;;;;11.77;2.08;;;13.30;99.90;;;;;;5054221;28;20084;-58
2023/09/30 06:57:33;;;;;;;14.35;2.85;;;13.30;99.90;;;;;;5051343;28;20438;-58
2023/09/30 07:00:01;;;;;;;13.63;2.55;;;13.30;99.90;;;;;;5032187;28;20091;-59
2023/09/30 07:02:28;;;;;;;17.33;2.80;;;13.30;99.90;;;;;;5042767;28;20055;-58
2023/09/30 07:04:55;;;;;;;9.63;2.25;;;13.30;99.90;;;;;;5044474;28;20137;-58
2023/09/30 07:07:22;;;;;;;15.13;2.92;;;13.40;99.90;;;;;;5049014;28;20047;-60
2023/09/30 07:09:49;;;;;;;15.88;3.55;;;13.40;99.90;;;;;;5055990;28;20079;-58
2023/09/30 07:12:16;;;;;;;17.60;4.40;;;13.40;99.90;;;;;;5037751;28;20056;-58
2023/09/30 07:14:43;;;;;;;13.10;2.50;;;13.30;99.90;;;;;;5057072;28;20076;-58
2023/09/30 07:17:10;;;;;;;14.68;2.78;;;13.30;99.90;;;;;;5045979;28;20094;-59
2023/09/30 07:19:37;;;;;;;11.30;3.63;;;13.40;99.90;;;;;;5055597;28;20128;-59
2023/09/30 07:22:04;;;;;;;12.25;3.17;;;13.40;99.90;;;;;;5047670;28;20496;-58
2023/09/30 07:24:31;;;;;;;17.05;3.05;;;13.40;99.90;;;;;;5051875;28;20041;-59
2023/09/30 07:26:58;;;;;;;16.48;3.30;;;13.40;99.90;;;;;;5047003;28;20041;-59
2023/09/30 07:29:27;;;;;;;11.38;2.65;;;13.50;99.90;;;;;;5041757;28;20041;-59
2023/09/30 07:31:54;;;;;;;10.77;3.10;;;13.50;99.90;;;;;;5055828;28;20052;-59
2023/09/30 07:34:21;;;;;;;9.90;2.45;;;13.50;99.90;;;;;;5055560;28;20055;-57
2023/09/30 07:36:48;;;;;;;15.38;2.95;;;13.50;99.90;;;;;;5050213;28;20488;-58
2023/09/30 07:39:17;;;;;;;16.67;3.67;;;13.60;99.90;;;;;;5034672;28;20124;-57
2023/09/30 07:41:44;;;;;;;19.15;3.60;;;13.70;99.90;;;;;;5048987;28;20492;-58
2023/09/30 07:44:10;;;;;;;14.10;2.70;;;13.70;99.90;;;;;;5043662;28;20079;-58
2023/09/30 07:46:37;;;;;;;10.73;2.85;;;13.80;99.90;;;;;;5048801;28;20045;-59
2023/09/30 07:49:06;;;;;;;14.90;3.00;;;13.80;99.90;;;;;;5043092;28;20041;-58
2023/09/30 07:51:33;;;;;;;14.45;3.45;;;13.90;99.90;;;;;;5036755;28;20072;-58
2023/09/30 07:54:00;;;;;;;15.35;3.42;;;14.00;99.90;;;;;;5045335;28;20098;-58
2023/09/30 07:56:47;;;;;;;13.40;2.75;;;14.00;99.90;;;;;;5043513;28;20085;-58
2023/09/30 07:59:14;;;;;;;17.00;2.83;;;14.10;99.90;;;;;;5049013;28;20042;-58
2023/09/30 08:01:41;;;;;;;16.92;2.83;;;14.10;99.90;;;;;;5054325;28;20082;-57
2023/09/30 08:04:08;;;;;;;18.88;3.00;;;14.20;99.90;;;;;;5040572;28;20044;-63
2023/09/30 08:06:35;;;;;;;24.38;3.67;;;14.30;99.90;;;;;;5028243;28;20045;-58
2023/09/30 08:09:02;;;;;;;17.85;3.35;;;14.40;99.90;;;;;;5047351;28;20128;-59
2023/09/30 08:11:32;;;;;;;14.00;2.38;;;14.40;99.90;;;;;;5050859;28;20526;-59
2023/09/30 08:13:59;;;;;;;14.15;2.40;;;14.50;99.90;;;;;;5047162;28;20527;-58
2023/09/30 08:16:25;;;;;;;14.65;2.40;;;14.50;99.90;;;;;;5047625;28;20064;-58
2023/09/30 08:18:53;;;;;;;14.75;3.97;;;14.50;99.90;;;;;;5043795;28;20049;-59
2023/09/30 08:21:19;;;;;;;11.35;2.97;;;14.50;99.90;;;;;;5029603;28;20048;-60
2023/09/30 08:23:46;;;;;;;11.98;2.47;;;14.60;99.90;;;;;;5043501;28;20059;-59
2023/09/30 08:26:13;;;;;;;17.65;3.40;;;14.60;99.90;;;;;;5043439;28;20049;-58
2023/09/30 08:28:40;;;;;;;22.58;4.63;;;14.60;99.90;;;;;;5051318;28;20075;-59
2023/09/30 08:31:09;;;;;;;12.07;3.08;;;14.70;99.90;;;;;;5034683;28;20496;-59
2023/09/30 08:33:43;;;;;;;17.60;2.92;;;14.70;99.90;;;;;;5045687;28;20072;-58
2023/09/30 08:36:10;;;;;;;15.68;4.32;;;14.70;99.90;;;;;;5049741;28;20049;-61
2023/09/30 08:38:37;;;;;;;16.73;2.95;;;14.90;99.90;;;;;;5028234;28;20095;-60
2023/09/30 08:41:04;;;;;;;12.38;3.13;;;14.90;99.90;;;;;;5039363;28;20447;-60
2023/09/30 08:43:31;;;;;;;20.33;3.33;;;15.00;99.90;;;;;;5051427;28;20049;-60
2023/09/30 08:45:59;;;;;;;17.55;2.63;;;15.00;99.90;;;;;;5024416;28;20437;-59
2023/09/30 08:48:27;;;;;;;14.25;3.03;;;15.10;99.90;;;;;;5045059;28;20041;-62
2023/09/30 08:50:57;;;;;;;16.05;2.63;;;15.10;99.90;;;;;;5003851;28;20087;-58
2023/09/30 08:53:24;;;;;;;12.85;2.47;;;15.30;99.90;;;;;;5050661;28;20758;-59
2023/09/30 08:55:55;;;;;;;22.63;3.50;;;15.60;99.90;;;;;;5042065;28;20057;-60
2023/09/30 08:58:28;;;;;;;18.83;4.55;;;16.00;99.90;;;;;;5037275;28;20045;-58
2023/09/30 09:00:56;;;;;;;14.88;4.20;;;16.30;99.90;;;;;;5046140;28;20053;-60
2023/09/30 09:03:23;;;;;;;15.98;2.67;;;16.50;99.90;;;;;;4710230;28;10000490;-59
2023/09/30 09:05:56;;;;;;;9.95;2.20;;;16.70;99.90;;;;;;5045502;28;20057;-59
2023/09/30 09:08:26;;;;;;;18.83;3.53;;;17.00;99.90;;;;;;5036065;28;20044;-60
2023/09/30 09:10:56;;;;;;;14.32;2.17;;;17.30;99.90;;;;;;5045375;28;20519;-58
2023/09/30 09:13:23;;;;;;;20.42;3.00;;;17.60;99.90;;;;;;5057960;28;20057;-58
2023/09/30 09:16:05;;;;;;;15.55;3.08;;;17.90;99.90;;;;;;5016019;28;20055;-59
2023/09/30 09:18:33;;;;;;;21.23;3.33;;;18.10;99.90;;;;;;5046336;28;20045;-59
2023/09/30 09:21:13;;;;;;;14.07;2.40;;;18.00;99.90;;;;;;5026696;28;20131;-58
2023/09/30 09:23:44;;;;;;;13.50;2.45;;;17.80;99.90;;;;;;5050118;28;20061;-57
2023/09/30 09:26:27;;;;;;;14.82;2.88;;;17.50;99.90;;;;;;5044310;28;20045;-57
2023/09/30 09:29:01;;;;;;;13.07;2.15;;;17.30;99.90;;;;;;5048989;28;20044;-58
2023/09/30 09:31:29;;;;;;;12.70;3.05;;;17.30;99.90;;;;;;5025977;28;20095;-59
2023/09/30 09:33:57;;;;;;;13.75;3.15;;;17.30;99.90;;;;;;5031246;28;20036;-60
2023/09/30 09:36:38;;;;;;;7.53;2.40;;;17.30;99.90;;;;;;5053821;28;20052;-59
2023/09/30 09:39:06;;;;;;;8.95;2.13;;;17.50;99.90;;;;;;5054518;28;20048;-58
2023/09/30 09:41:33;;;;;;;12.02;1.83;;;17.50;99.90;;;;;;5026251;28;20044;-59
2023/09/30 09:43:59;;;;;;;8.80;2.35;;;17.50;99.90;;;;;;5050151;28;20049;-59
2023/09/30 09:46:27;;;;;;;14.57;2.20;;;17.50;99.90;;;;;;5045428;28;20046;-59
2023/09/30 09:48:54;;;;;;;9.45;2.00;;;17.40;99.90;;;;;;5033145;28;20037;-59
2023/09/30 09:51:21;;;;;;;6.43;1.90;;;17.40;99.90;;;;;;5034736;28;20488;-59
2023/09/30 09:53:48;;;;;;;10.75;1.95;;;17.40;99.90;;;;;;5028973;28;20480;-60
2023/09/30 09:56:15;;;;;;;10.23;2.42;;;17.50;99.90;;;;;;5047424;28;20045;-60
2023/09/30 09:58:43;;;;;;;5.32;2.00;;;17.50;99.90;;;;;;5017843;28;20048;-59
2023/09/30 10:01:10;;;;;;;11.05;1.55;;;17.60;99.90;;;;;;5051261;28;20053;-58
2023/09/30 10:03:40;;;;;;;6.10;1.83;;;17.70;99.90;;;;;;5051376;28;20114;-59
2023/09/30 10:06:08;;;;;;;10.27;2.03;;;17.80;99.90;;;;;;5058461;28;20644;-58
2023/09/30 10:08:39;;;;;;;4.57;2.25;;;17.80;99.90;;;;;;5028021;28;20434;-58
2023/09/30 10:11:06;;;;;;;4.53;1.48;;;17.70;99.90;;;;;;5044342;28;20068;-58
2023/09/30 10:13:55;;;;;;;8.27;1.63;;;17.70;99.90;;;;;;5032018;28;20578;-57
2023/09/30 10:16:37;;;;;;;10.43;1.85;;;17.80;99.90;;;;;;5052542;28;20048;-58
2023/09/30 10:19:30;;;;;;;7.15;2.13;;;17.70;99.90;;;;;;5053067;28;20055;-60
2023/09/30 10:22:16;;;;;;;8.63;1.67;;;17.70;99.90;;;;;;5049076;28;20052;-59
2023/09/30 10:24:43;;;;;;;9.27;1.73;;;17.70;99.90;;;;;;5049592;28;20068;-58
2023/09/30 10:27:28;;;;;;;6.93;2.00;;;17.70;99.90;;;;;;5049915;28;20093;-58
2023/09/30 10:29:59;;;;;;;8.82;1.95;;;17.70;99.90;;;;;;5056004;28;20053;-63
2023/09/30 10:32:54;;;;;;;9.65;2.40;;;17.80;99.90;;;;;;5049516;28;20049;-58
2023/09/30 10:35:27;;;;;;;8.50;1.58;;;17.80;99.90;;;;;;5045826;28;20041;-56
2023/09/30 10:38:22;;;;;;;4.00;1.48;;;17.80;99.90;;;;;;5047274;28;20064;-59
2023/09/30 10:40:52;;;;;;;9.57;1.45;;;18.00;99.90;;;;;;5048453;28;20139;-59
2023/09/30 10:43:38;;;;;;;8.15;1.52;;;18.20;99.90;;;;;;5057673;28;20057;-59
2023/09/30 10:46:27;;;;;;;5.45;1.23;;;18.40;99.90;;;;;;5039359;28;20091;-58
2023/09/30 10:48:55;;;;;;;6.03;1.38;;;18.50;99.90;;;;;;5037754;28;20049;-59
2023/09/30 10:51:22;;;;;;;3.78;1.00;;;18.60;99.90;;;;;;5047073;28;20577;-60
2023/09/30 10:53:56;;;;;;;6.38;2.25;;;18.70;99.90;;;;;;5050113;28;20230;-59
2023/09/30 10:56:32;;;;;;;7.55;1.30;;;18.80;99.90;;;;;;5059623;28;20135;-59
2023/09/30 10:59:01;;;;;;;7.97;1.70;;;18.80;99.90;;;;;;5047495;28;20041;-59
2023/09/30 11:01:32;;;;;;;6.03;1.27;;;18.80;99.90;;;;;;5056242;28;20051;-59
2023/09/30 11:04:05;;;;;;;4.43;1.70;;;18.90;99.90;;;;;;5033391;28;20045;-58
2023/09/30 11:06:32;;;;;;;8.85;1.50;;;18.80;99.90;;;;;;5032902;28;20099;-59
2023/09/30 11:09:00;;;;;;;10.32;2.97;;;18.80;99.90;;;;;;5046886;28;20098;-58
2023/09/30 11:11:37;;;;;;;6.15;1.58;;;18.90;99.90;;;;;;5049200;28;20128;-61
2023/09/30 11:14:25;;;;;;;5.95;1.58;;;18.90;99.90;;;;;;5033258;28;20106;-59
2023/09/30 11:16:59;;;;;;;3.00;0.93;;;19.00;99.90;;;;;;4746988;28;10000796;-59
2023/09/30 11:19:27;;;;;;;5.82;1.40;;;19.00;99.90;;;;;;5036929;28;20249;-60
2023/09/30 11:21:54;;;;;;;8.48;1.63;;;19.00;99.90;;;;;;5054902;28;20074;-59
2023/09/30 11:24:22;;;;;;;6.38;1.65;;;19.00;99.90;;;;;;5043750;28;20060;-60
2023/09/30 11:26:57;;;;;;;7.93;2.53;;;19.10;99.90;;;;;;5032703;28;20091;-58
2023/09/30 11:29:26;;;;;;;6.85;2.00;;;19.10;99.90;;;;;;5029692;28;20111;-59
2023/09/30 11:31:53;;;;;;;5.32;1.63;;;19.20;99.90;;;;;;5048850;28;20052;-59
2023/09/30 11:34:32;;;;;;;11.23;2.15;;;19.20;99.90;;;;;;5056323;28;20048;-60
2023/09/30 11:37:00;;;;;;;8.90;1.70;;;19.10;99.90;;;;;;5026001;28;20111;-59
2023/09/30 11:39:30;;;;;;;8.45;2.17;;;19.10;99.90;;;;;;5028219;28;20048;-59
2023/09/30 11:41:57;;;;;;;6.28;2.30;;;19.10;99.90;;;;;;5025252;28;20089;-59
2023/09/30 11:44:26;;;;;;;7.93;1.95;;;19.10;99.90;;;;;;5047992;28;20134;-59
2023/09/30 11:47:02;;;;;;;11.38;1.65;;;19.10;99.90;;;;;;5047539;28;20115;-61
2023/09/30 11:49:34;;;;;;;7.05;1.52;;;19.00;99.90;;;;;;5040830;28;20049;-59
2023/09/30 11:52:03;;;;;;;10.75;2.10;;;19.10;99.90;;;;;;5038691;28;20052;-58
2023/09/30 11:54:34;;;;;;;9.07;1.80;;;19.10;99.90;;;;;;5028640;28;20044;-59
2023/09/30 11:57:01;;;;;;;9.93;1.77;;;19.10;99.90;;;;;;5042471;28;20478;-60
2023/09/30 11:59:29;;;;;;;8.68;1.95;;;19.20;99.90;;;;;;5038075;28;20047;-60
2023/09/30 12:01:57;;;;;;;7.90;1.73;;;19.20;99.90;;;;;;5025751;28;20056;-60
2023/09/30 12:04:39;;;;;;;8.50;1.65;;;19.30;99.90;;;;;;5037083;28;20053;-59
2023/09/30 12:07:09;;;;;;;6.88;1.77;;;19.30;99.90;;;;;;5046866;28;20049;-60
2023/09/30 12:09:37;;;;;;;11.77;2.53;;;19.30;99.90;;;;;;5054728;28;20107;-59
2023/09/30 12:12:04;;;;;;;5.13;1.90;;;19.40;99.90;;;;;;5064705;28;20045;-60
2023/09/30 12:14:32;;;;;;;8.80;2.38;;;19.40;99.90;;;;;;5030050;28;20052;-60
2023/09/30 12:16:59;;;;;;;7.47;1.40;;;19.50;99.90;;;;;;5027435;28;20080;-60
2023/09/30 12:19:26;;;;;;;3.65;1.35;;;19.50;99.90;;;;;;5046846;28;20047;-60
2023/09/30 12:21:53;;;;;;;7.53;1.73;;;19.70;99.90;;;;;;5047657;28;20049;-59
2023/09/30 12:24:21;;;;;;;9.05;1.70;;;19.70;99.90;;;;;;5046455;28;20574;-60
2023/09/30 12:26:49;;;;;;;9.32;1.92;;;19.60;99.90;;;;;;5040585;28;20107;-60
2023/09/30 12:29:19;;;;;;;6.70;1.30;;;19.70;99.90;;;;;;5027355;28;20053;-60
2023/09/30 12:31:46;;;;;;;8.70;1.60;;;19.80;99.90;;;;;;5019178;28;20124;-59
2023/09/30 12:34:20;;;;;;;9.70;1.88;;;19.90;99.90;;;;;;5016349;28;20049;-60
2023/09/30 12:36:47;;;;;;;6.50;1.38;;;19.80;99.90;;;;;;5014268;28;20440;-60
2023/09/30 12:39:16;;;;;;;10.00;1.83;;;19.80;99.90;;;;;;5014491;28;20045;-59
2023/09/30 12:41:44;;;;;;;8.60;1.83;;;19.90;99.90;;;;;;5030219;28;20140;-58
2023/09/30 12:44:13;;;;;;;8.95;2.05;;;20.00;99.90;;;;;;5015542;28;20077;-58
2023/09/30 12:46:40;;;;;;;7.82;2.10;;;20.00;99.90;;;;;;5017124;28;20057;-58
2023/09/30 12:49:07;;;;;;;6.95;1.92;;;20.00;99.90;;;;;;5013224;28;20064;-60
2023/09/30 12:51:34;;;;;;;6.13;2.33;;;19.90;99.90;;;;;;5029251;28;20049;-59